Time;durP1;ratioP1;P1;durP2;ratioP2;P2;SDS_P1;SDS_P2;PMS_P1;PMS_P2;Temp;Humidity;BMP_temperature;BMP_pressure;BME280_temperature;BME280_humidity;BME280_pressure;Samples;Min_cycle;Max_cycle;Signal;HPM_P1;HPM_P2
2022/01/06 00:00:17;;;;;;;19.37;13.98;;;;;;;5.21;100.00;98964.59;1802324;79;21174;-77
2022/01/06 00:03:23;;;;;;;23.30;15.88;;;;;;;5.23;100.00;98965.28;1803777;79;21126;-82
2022/01/06 00:06:30;;;;;;;20.52;14.23;;;;;;;5.27;100.00;98971.17;1802907;79;21841;-77
2022/01/06 00:09:36;;;;;;;22.87;15.83;;;;;;;5.29;100.00;98971.34;1803571;79;21261;-82
2022/01/06 00:12:48;;;;;;;25.72;15.80;;;;;;;5.32;100.00;98970.17;1803371;79;21276;-77
2022/01/06 00:25:36;;;;;;;26.42;17.27;;;;;;;5.27;100.00;98971.17;1802878;79;21268;-82
2022/01/06 00:28:43;;;;;;;19.65;13.83;;;;;;;5.19;100.00;98961.73;1803633;79;21268;-82
2022/01/06 00:31:49;;;;;;;26.57;16.25;;;;;;;5.15;100.00;98962.59;1803535;79;21189;-76
2022/01/06 00:34:54;;;;;;;27.93;17.35;;;;;;;5.11;100.00;98968.86;1803495;79;21304;-82
2022/01/06 00:38:00;;;;;;;20.62;14.93;;;;;;;5.13;100.00;98967.35;1802169;79;21347;-76
2022/01/06 00:41:05;;;;;;;26.37;14.50;;;;;;;5.11;100.00;98961.24;1803101;79;21323;-82
2022/01/06 00:44:12;;;;;;;45.12;17.67;;;;;;;5.11;100.00;98969.38;1803641;79;21268;-80
2022/01/06 00:47:20;;;;;;;34.78;16.95;;;;;;;5.11;100.00;98962.59;1809576;78;21307;-82
2022/01/06 00:50:25;;;;;;;23.70;15.95;;;;;;;5.15;100.00;98962.59;1817847;79;21264;-77
2022/01/06 00:53:30;;;;;;;28.95;17.23;;;;;;;5.21;100.00;98961.88;1816361;79;21161;-82
2022/01/06 00:56:35;;;;;;;35.03;17.23;;;;;;;5.24;100.00;98963.41;1816893;79;21359;-77
2022/01/06 00:59:41;;;;;;;26.35;16.57;;;;;;;5.27;100.00;98964.39;1816407;79;22348;-77
2022/01/06 01:02:45;;;;;;;25.55;16.07;;;;;;;5.30;100.00;98961.34;1816674;79;21825;-77
2022/01/06 01:05:53;;;;;;;23.67;17.00;;;;;;;5.30;100.00;98963.55;1817442;79;21287;-77
2022/01/06 01:08:58;;;;;;;35.20;16.12;;;;;;;5.30;100.00;98960.83;1818112;79;21836;-77
2022/01/06 01:12:04;;;;;;;29.92;16.15;;;;;;;5.35;100.00;98953.52;1816422;79;21279;-82
2022/01/06 01:15:18;;;;;;;22.70;16.15;;;;;;;5.37;100.00;98953.70;1817934;79;21257;-77
2022/01/06 01:18:19;;;;;;;18.98;13.90;;;;;;;5.34;100.00;98954.55;1817884;79;21252;-83
2022/01/06 01:21:29;;;;;;;22.40;16.45;;;;;;;5.30;100.00;98951.86;1817285;79;21184;-82
2022/01/06 01:24:30;;;;;;;27.80;17.15;;;;;;;5.22;100.00;98952.75;1818117;79;21287;-77
2022/01/06 01:27:39;;;;;;;23.70;15.70;;;;;;;5.13;100.00;98952.45;1816567;79;21224;-77
2022/01/06 01:31:18;;;;;;;28.27;16.07;;;;;;;5.13;100.00;98948.38;1817761;79;21718;-82
2022/01/06 01:34:09;;;;;;;27.93;15.98;;;;;;;5.12;100.00;98954.80;1817878;79;21255;-83
2022/01/06 01:37:15;;;;;;;29.40;14.73;;;;;;;5.14;100.00;98943.28;1816511;79;21854;-77
2022/01/06 01:40:21;;;;;;;20.32;14.28;;;;;;;5.13;100.00;98937.53;1817982;79;21260;-82
2022/01/06 01:43:26;;;;;;;22.30;15.10;;;;;;;5.18;100.00;98940.56;1816488;79;21887;-77
2022/01/06 01:46:33;;;;;;;22.60;12.85;;;;;;;5.22;100.00;98946.45;1817218;79;21339;-78
2022/01/06 01:49:57;;;;;;;20.48;13.45;;;;;;;5.23;100.00;98938.69;1816681;78;21291;-83
2022/01/06 01:53:01;;;;;;;16.00;12.70;;;;;;;5.22;100.00;98945.09;1818058;79;21271;-77
2022/01/06 01:56:06;;;;;;;21.30;11.60;;;;;;;5.18;100.00;98943.27;1818016;79;21299;-82
2022/01/06 01:59:11;;;;;;;13.90;10.95;;;;;;;5.15;100.00;98949.55;1818109;79;21188;-79
2022/01/06 02:02:16;;;;;;;19.62;12.20;;;;;;;5.13;100.00;98940.25;1816726;79;22235;-82
2022/01/06 02:05:28;;;;;;;14.75;12.20;;;;;;;5.13;100.00;98938.89;1817936;79;21785;-82
2022/01/06 02:08:35;;;;;;;20.32;12.43;;;;;;;5.11;100.00;98935.49;1816481;79;21264;-83
2022/01/06 02:11:41;;;;;;;18.80;13.45;;;;;;;5.08;100.00;98931.77;1816459;79;21299;-77
2022/01/06 02:14:49;;;;;;;16.57;12.35;;;;;;;5.08;100.00;98933.99;1816392;79;21272;-83
2022/01/06 02:17:54;;;;;;;18.50;12.73;;;;;;;5.09;100.00;98934.84;1816641;79;21284;-82
2022/01/06 02:21:00;;;;;;;20.60;14.05;;;;;;;5.06;100.00;98937.38;1817960;79;21299;-83
2022/01/06 02:24:05;;;;;;;21.15;11.28;;;;;;;5.03;100.00;98928.73;1817876;79;21327;-77
2022/01/06 02:27:11;;;;;;;24.07;13.78;;;;;;;5.01;100.00;98932.14;1816696;79;21276;-77
2022/01/06 02:30:17;;;;;;;39.88;13.35;;;;;;;4.97;100.00;98908.61;1817873;79;21220;-77
2022/01/06 02:33:24;;;;;;;24.57;13.10;;;;;;;4.96;100.00;98920.47;1816875;79;21153;-77
2022/01/06 02:36:29;;;;;;;15.28;11.25;;;;;;;4.97;100.00;98928.09;1817964;79;21291;-77
2022/01/06 02:39:35;;;;;;;14.18;11.05;;;;;;;4.97;100.00;98911.31;1818087;79;21169;-78
2022/01/06 02:42:41;;;;;;;19.10;12.33;;;;;;;5.01;100.00;98911.81;1817841;79;21331;-77
2022/01/06 02:45:46;;;;;;;16.55;11.38;;;;;;;5.01;100.00;98924.02;1817668;79;21212;-77
2022/01/06 02:48:52;;;;;;;21.48;13.68;;;;;;;5.00;100.00;98909.63;1814004;78;21300;-82
2022/01/06 02:51:56;;;;;;;15.75;11.60;;;;;;;4.99;100.00;98920.13;1801294;79;21343;-82
2022/01/06 02:55:02;;;;;;;14.70;10.45;;;;;;;4.97;100.00;98908.61;1802418;79;21312;-82
2022/01/06 02:58:08;;;;;;;19.37;12.00;;;;;;;4.97;100.00;98907.77;1801577;79;21748;-77
2022/01/06 03:01:14;;;;;;;20.88;12.35;;;;;;;4.94;100.00;98915.75;1796952;79;21339;-77
2022/01/06 03:04:20;;;;;;;16.35;11.97;;;;;;;4.95;100.00;98908.46;1769873;81;21375;-77
2022/01/06 03:07:26;;;;;;;17.32;11.45;;;;;;;4.91;100.00;98915.25;1770970;81;21882;-76
2022/01/06 03:10:36;;;;;;;14.70;10.45;;;;;;;4.83;100.00;98918.81;1770847;81;21284;-82
2022/01/06 03:13:39;;;;;;;18.60;12.43;;;;;;;4.76;100.00;98917.31;1770902;81;21258;-77
2022/01/06 03:16:45;;;;;;;14.03;10.15;;;;;;;4.74;100.00;98922.55;1766700;79;21296;-82
2022/01/06 03:19:54;;;;;;;15.13;10.45;;;;;;;4.72;100.00;98911.06;1760961;81;21864;-78
2022/01/06 03:22:58;;;;;;;17.23;11.33;;;;;;;4.71;100.00;98919.70;1761112;81;21311;-82
2022/01/06 03:26:04;;;;;;;10.50;8.80;;;;;;;4.74;100.00;98915.27;1761127;81;21180;-77
2022/01/06 03:29:09;;;;;;;14.73;9.85;;;;;;;4.74;100.00;98907.14;1761101;81;21817;-78
2022/01/06 03:32:14;;;;;;;12.45;10.20;;;;;;;4.71;100.00;98912.92;1761093;81;21196;-77
2022/01/06 03:35:23;;;;;;;17.30;9.85;;;;;;;4.64;100.00;98915.97;1760897;81;21156;-77
2022/01/06 03:38:27;;;;;;;19.70;9.70;;;;;;;4.60;100.00;98917.33;1761150;81;21192;-81
2022/01/06 03:41:33;;;;;;;12.85;9.60;;;;;;;4.58;100.00;98910.75;1760262;81;22222;-77
2022/01/06 03:44:39;;;;;;;11.93;9.78;;;;;;;4.59;100.00;98911.59;1759146;81;21306;-78
2022/01/06 03:47:44;;;;;;;16.37;10.55;;;;;;;4.58;100.00;98910.75;1760778;81;21303;-77
2022/01/06 03:50:49;;;;;;;19.15;11.90;;;;;;;4.58;100.00;98909.91;1773022;80;21159;-77
2022/01/06 03:53:55;;;;;;;15.28;11.28;;;;;;;4.61;100.00;98908.19;1785732;80;21148;-83
2022/01/06 03:56:59;;;;;;;14.03;8.95;;;;;;;4.66;100.00;98909.89;1784577;80;21187;-83
2022/01/06 04:00:05;;;;;;;10.68;9.25;;;;;;;4.67;100.00;98907.52;1785699;80;21807;-83
2022/01/06 04:03:11;;;;;;;12.00;9.18;;;;;;;4.63;100.00;98902.62;1785710;80;21267;-78
2022/01/06 04:06:17;;;;;;;9.78;8.58;;;;;;;4.59;100.00;98895.34;1785082;80;21362;-77
2022/01/06 04:09:22;;;;;;;13.25;10.43;;;;;;;4.54;100.00;98893.14;1784237;80;21293;-82
2022/01/06 04:12:29;;;;;;;11.28;9.20;;;;;;;4.52;100.00;98895.70;1784280;80;21769;-83
2022/01/06 04:15:35;;;;;;;11.30;9.38;;;;;;;4.49;100.00;98895.53;1785596;80;21298;-82
2022/01/06 04:18:41;;;;;;;10.58;9.08;;;;;;;4.46;100.00;98890.44;1785257;80;21318;-77
2022/01/06 04:21:47;;;;;;;9.93;7.90;;;;;;;4.45;100.00;98902.81;1784328;80;21299;-82
2022/01/06 04:24:52;;;;;;;9.38;7.75;;;;;;;4.43;100.00;98900.80;1785865;80;21155;-83
2022/01/06 04:27:57;;;;;;;11.12;8.95;;;;;;;4.42;100.00;98899.08;1785839;80;21167;-83
2022/01/06 04:31:02;;;;;;;11.08;9.13;;;;;;;4.41;100.00;98896.89;1785774;80;21191;-82
2022/01/06 04:34:08;;;;;;;13.88;10.10;;;;;;;4.42;100.00;98900.44;1785752;80;21697;-82
2022/01/06 04:37:13;;;;;;;14.58;9.53;;;;;;;4.41;100.00;98896.89;1785867;80;21322;-78
2022/01/06 04:40:19;;;;;;;12.78;9.73;;;;;;;4.40;100.00;98897.06;1785875;80;21151;-78
2022/01/06 04:43:24;;;;;;;10.23;8.03;;;;;;;4.36;100.00;98910.94;1785833;80;21455;-82
2022/01/06 04:46:30;;;;;;;9.78;8.40;;;;;;;4.33;100.00;98910.45;1785100;80;21199;-83
2022/01/06 04:49:35;;;;;;;12.60;9.28;;;;;;;4.29;100.00;98914.00;1785759;80;21186;-83
2022/01/06 04:52:41;;;;;;;10.50;8.93;;;;;;;4.27;100.00;98917.37;1784243;80;21286;-78
2022/01/06 04:55:49;;;;;;;10.15;8.13;;;;;;;4.26;100.00;98913.48;1785747;80;21226;-82
2022/01/06 04:58:56;;;;;;;14.13;9.73;;;;;;;4.26;100.00;98906.21;1785539;80;21140;-82
2022/01/06 05:02:02;;;;;;;11.68;8.85;;;;;;;4.25;100.00;98920.77;1784567;80;21306;-83
2022/01/06 05:05:08;;;;;;;11.35;9.28;;;;;;;4.23;100.00;98921.42;1785486;80;21195;-83
2022/01/06 05:08:13;;;;;;;10.38;8.03;;;;;;;4.20;100.00;98938.02;1785734;80;21269;-78
2022/01/06 05:11:20;;;;;;;10.63;8.60;;;;;;;4.21;100.00;98946.47;1784954;80;21226;-83
2022/01/06 05:14:26;;;;;;;13.30;8.68;;;;;;;4.20;100.00;98935.31;1785672;80;21266;-77
2022/01/06 05:17:32;;;;;;;14.28;9.50;;;;;;;4.18;100.00;98942.73;1785668;80;21684;-84
2022/01/06 05:20:42;;;;;;;14.83;9.53;;;;;;;4.19;100.00;98943.58;1784453;80;21278;-83
2022/01/06 05:23:48;;;;;;;13.18;10.88;;;;;;;4.21;100.00;98951.05;1785704;80;21270;-79
2022/01/06 05:26:57;;;;;;;13.25;10.50;;;;;;;4.28;100.00;98954.27;1784502;80;21313;-81
2022/01/06 05:30:00;;;;;;;10.78;8.43;;;;;;;4.35;100.00;98955.27;1784998;80;21187;-83
2022/01/06 05:33:05;;;;;;;20.45;9.93;;;;;;;4.32;100.00;98950.19;1784257;80;21317;-82
2022/01/06 05:36:11;;;;;;;10.60;8.15;;;;;;;4.26;100.00;98964.41;1784629;79;21167;-83
2022/01/06 05:39:16;;;;;;;11.60;8.63;;;;;;;4.23;100.00;98960.67;1785678;80;21163;-77
2022/01/06 05:42:22;;;;;;;19.42;9.60;;;;;;;4.22;100.00;98958.98;1784246;80;21294;-84
2022/01/06 05:45:28;;;;;;;11.85;9.05;;;;;;;4.22;100.00;98951.38;1785450;80;21342;-79
2022/01/06 05:48:33;;;;;;;10.30;7.75;;;;;;;4.22;100.00;98954.92;1785727;80;21819;-77
2022/01/06 05:51:40;;;;;;;21.45;9.60;;;;;;;4.27;100.00;98961.19;1785298;80;21462;-78
2022/01/06 05:54:46;;;;;;;11.68;8.30;;;;;;;4.31;100.00;98968.80;1790402;79;21291;-77
2022/01/06 05:57:52;;;;;;;17.42;8.38;;;;;;;4.33;100.00;98977.62;1796756;79;21198;-77
2022/01/06 06:00:58;;;;;;;14.05;8.80;;;;;;;4.30;100.00;98972.53;1799627;79;21267;-83
2022/01/06 06:04:04;;;;;;;12.45;9.20;;;;;;;4.33;100.00;98974.91;1803029;79;21257;-83
2022/01/06 06:07:10;;;;;;;11.33;8.60;;;;;;;4.41;100.00;98979.97;1799878;79;21276;-83
2022/01/06 06:10:16;;;;;;;12.93;9.48;;;;;;;4.46;100.00;98973.02;1802684;79;21121;-83
2022/01/06 06:13:21;;;;;;;22.13;12.95;;;;;;;4.51;100.00;98969.30;1802727;79;21252;-83
2022/01/06 06:16:27;;;;;;;20.77;13.15;;;;;;;4.58;100.00;98964.06;1801533;79;21244;-77
2022/01/06 06:19:33;;;;;;;17.87;10.63;;;;;;;4.65;100.00;98961.00;1794707;79;21251;-83
2022/01/06 06:22:38;;;;;;;12.78;10.03;;;;;;;4.75;100.00;98956.75;1812516;79;21731;-76
2022/01/06 06:25:45;;;;;;;12.05;9.50;;;;;;;4.83;100.00;98962.16;1784518;80;21322;-77
2022/01/06 06:28:52;;;;;;;12.80;9.30;;;;;;;4.92;100.00;98961.12;1788240;79;21300;-78
2022/01/06 06:31:57;;;;;;;9.40;7.33;;;;;;;5.00;100.00;98967.89;1790743;79;21204;-84
2022/01/06 06:35:02;;;;;;;13.28;10.25;;;;;;;5.01;100.00;98980.41;1794599;79;21284;-77
2022/01/06 06:38:08;;;;;;;10.93;9.05;;;;;;;4.98;100.00;98980.75;1798174;79;21316;-78
2022/01/06 06:41:14;;;;;;;16.73;8.65;;;;;;;5.00;100.00;98989.56;1804289;77;21326;-83
2022/01/06 06:44:20;;;;;;;28.70;9.93;;;;;;;5.04;100.00;98996.34;1788406;79;21263;-83
2022/01/06 06:47:26;;;;;;;14.70;9.90;;;;;;;5.08;100.00;98990.03;1786158;79;21355;-84
2022/01/06 06:50:31;;;;;;;12.07;9.18;;;;;;;5.11;100.00;98990.55;1789252;79;21291;-77
2022/01/06 06:53:37;;;;;;;16.57;8.38;;;;;;;5.16;100.00;98993.25;1790258;79;21296;-77
2022/01/06 06:56:42;;;;;;;10.60;8.23;;;;;;;5.22;100.00;98988.00;1735901;79;154960;-77
2022/01/06 06:59:50;;;;;;;17.23;9.00;;;;;;;5.29;100.00;98994.39;1731390;80;21372;-78
2022/01/06 07:02:57;;;;;;;11.45;8.33;;;;;;;5.37;100.00;98992.17;1733557;80;21281;-84
2022/01/06 07:06:02;;;;;;;14.18;8.60;;;;;;;5.42;100.00;99002.50;1733550;80;21325;-83
2022/01/06 07:09:08;;;;;;;14.40;9.00;;;;;;;5.43;100.00;99000.11;1738976;80;21328;-84
2022/01/06 07:12:14;;;;;;;27.98;10.35;;;;;;;5.44;100.00;99008.06;1734091;80;21243;-77
2022/01/06 07:15:21;;;;;;;12.40;10.08;;;;;;;5.45;100.00;99006.20;1724216;80;21168;-77
2022/01/06 07:18:25;;;;;;;13.22;8.25;;;;;;;5.50;100.00;99003.80;1737984;82;21270;-77
2022/01/06 07:21:31;;;;;;;15.05;9.65;;;;;;;5.54;100.00;99002.44;1734721;80;21941;-77
2022/01/06 07:24:39;;;;;;;13.10;10.05;;;;;;;5.56;100.00;99011.26;1730860;80;21804;-77
2022/01/06 07:27:47;;;;;;;24.47;10.45;;;;;;;5.55;100.00;99013.61;1735930;80;21850;-78
2022/01/06 07:30:53;;;;;;;13.85;9.58;;;;;;;5.54;100.00;99012.77;1743403;80;21536;-79
2022/01/06 07:33:58;;;;;;;15.03;11.05;;;;;;;5.57;100.00;99007.52;1746185;80;21260;-79
2022/01/06 07:37:03;;;;;;;18.07;11.40;;;;;;;5.59;100.00;99015.80;1737355;80;21400;-78
2022/01/06 07:40:09;;;;;;;17.25;11.38;;;;;;;5.59;100.00;99010.89;1741423;80;21717;-83
2022/01/06 07:43:14;;;;;;;19.23;12.37;;;;;;;5.59;100.00;99003.59;1718040;82;21144;-82
2022/01/06 07:46:21;;;;;;;24.55;10.90;;;;;;;5.61;100.00;99008.86;1740958;81;21540;-77
2022/01/06 07:49:27;;;;;;;15.90;10.10;;;;;;;5.64;100.00;99013.91;1741873;81;21792;-77
2022/01/06 07:52:32;;;;;;;17.42;10.82;;;;;;;5.70;100.00;99011.03;1741191;80;21314;-76
2022/01/06 07:55:38;;;;;;;21.57;11.43;;;;;;;5.74;100.00;99008.27;1741321;80;21290;-77
2022/01/06 07:58:43;;;;;;;25.40;12.37;;;;;;;5.77;100.00;99023.69;1740840;80;21286;-77
2022/01/06 08:01:49;;;;;;;16.65;11.30;;;;;;;5.75;100.00;99026.27;1736019;80;21196;-83
2022/01/06 08:04:55;;;;;;;22.13;12.73;;;;;;;5.73;100.00;99020.99;1739824;80;21990;-85
2022/01/06 08:08:01;;;;;;;20.68;11.28;;;;;;;5.70;100.00;99017.81;1741400;80;21910;-86
2022/01/06 08:11:05;;;;;;;14.60;10.60;;;;;;;5.79;100.00;99013.53;1748644;80;21451;-85
2022/01/06 08:14:11;;;;;;;18.42;12.28;;;;;;;5.86;100.00;98998.20;1739446;80;21224;-83
2022/01/06 08:17:16;;;;;;;15.68;10.88;;;;;;;5.93;100.00;98998.88;1729064;80;21851;-78
2022/01/06 08:20:21;;;;;;;19.85;10.30;;;;;;;6.04;100.00;98988.98;1741980;81;21326;-78
2022/01/06 08:23:26;;;;;;;22.27;12.13;;;;;;;6.10;100.00;98984.19;1732396;80;21271;-78
2022/01/06 08:26:31;;;;;;;19.92;12.33;;;;;;;6.15;100.00;98984.49;1741569;80;21713;-78
2022/01/06 08:29:36;;;;;;;18.17;12.80;;;;;;;6.13;100.00;98976.53;1738108;80;21286;-78
2022/01/06 08:32:43;;;;;;;24.52;13.00;;;;;;;6.14;100.00;98978.22;1734583;80;22205;-84
2022/01/06 08:35:48;;;;;;;16.62;10.80;;;;;;;6.15;100.00;98977.19;1751391;80;21298;-78
2022/01/06 08:38:53;;;;;;;21.37;12.25;;;;;;;6.12;100.00;98980.80;1737262;81;21819;-78
2022/01/06 08:42:00;;;;;;;18.82;13.62;;;;;;;6.04;100.00;98982.20;1738832;80;21243;-77
2022/01/06 08:45:06;;;;;;;19.05;11.93;;;;;;;5.99;100.00;98989.52;1738364;80;21266;-77
2022/01/06 08:48:11;;;;;;;17.73;11.50;;;;;;;5.95;100.00;98984.12;1739107;81;21322;-78
2022/01/06 08:51:17;;;;;;;17.50;12.18;;;;;;;5.95;100.00;98988.70;1735322;80;21306;-84
2022/01/06 08:54:22;;;;;;;26.40;12.95;;;;;;;5.90;100.00;98983.78;1737098;80;21180;-78
2022/01/06 08:57:28;;;;;;;30.23;13.62;;;;;;;5.85;100.00;98987.03;1738724;81;21197;-78
2022/01/06 09:00:39;;;;;;;22.37;13.70;;;;;;;5.90;100.00;98983.78;1735198;81;21408;-84
2022/01/06 09:03:44;;;;;;;19.67;13.40;;;;;;;5.95;100.00;98980.56;1735814;80;21872;-85
2022/01/06 09:06:49;;;;;;;19.35;12.90;;;;;;;6.03;100.00;98977.80;1736123;81;21321;-78
2022/01/06 09:09:54;;;;;;;23.00;15.25;;;;;;;6.13;100.00;98986.55;1738252;80;21757;-78
2022/01/06 09:13:00;;;;;;;21.07;14.43;;;;;;;6.22;100.00;98991.42;1740916;81;21363;-84
2022/01/06 09:16:10;;;;;;;20.70;14.20;;;;;;;6.24;100.00;98995.63;1735214;80;21287;-84
2022/01/06 09:19:13;;;;;;;24.60;16.02;;;;;;;6.29;100.00;99003.23;1738244;81;21815;-79
2022/01/06 09:22:18;;;;;;;33.73;18.48;;;;;;;6.32;100.00;99005.60;1741806;81;21888;-78
2022/01/06 09:25:23;;;;;;;27.25;17.40;;;;;;;6.33;100.00;99006.77;1737889;81;21786;-78
2022/01/06 09:28:27;;;;;;;32.17;17.10;;;;;;;6.36;100.00;99004.22;1743227;81;21184;-78
2022/01/06 09:31:33;;;;;;;32.98;18.27;;;;;;;6.35;100.00;98992.52;1742487;80;21310;-78
2022/01/06 09:34:39;;;;;;;22.07;15.38;;;;;;;6.34;100.00;99002.17;1744100;81;21156;-77
2022/01/06 09:37:47;;;;;;;26.00;16.77;;;;;;;6.32;100.00;98997.45;1736057;81;21255;-78
2022/01/06 09:40:52;;;;;;;31.80;17.70;;;;;;;6.25;100.00;98995.95;1737251;80;21883;-78
2022/01/06 09:44:03;;;;;;;23.70;17.07;;;;;;;6.19;100.00;99008.06;1734755;80;21690;-83
2022/01/06 09:47:10;;;;;;;20.82;13.15;;;;;;;6.18;100.00;99020.80;1739217;80;21325;-83
2022/01/06 09:50:17;;;;;;;22.50;15.63;;;;;;;6.26;100.00;99015.84;1747685;80;21265;-77
2022/01/06 09:53:23;;;;;;;20.30;15.00;;;;;;;6.27;100.00;99021.08;1735487;80;21628;-83
2022/01/06 09:56:29;;;;;;;24.47;16.30;;;;;;;6.25;100.00;99029.05;1739591;80;21206;-83
2022/01/06 09:59:34;;;;;;;24.92;16.30;;;;;;;6.26;100.00;99023.47;1736548;80;21275;-77
2022/01/06 10:02:42;;;;;;;33.92;18.15;;;;;;;6.35;100.00;99025.10;1733752;81;21816;-77
2022/01/06 10:05:50;;;;;;;24.52;17.60;;;;;;;6.45;100.00;99021.30;1747424;80;21333;-77
2022/01/06 10:09:04;;;;;;;27.22;18.23;;;;;;;6.52;100.00;99018.17;1736938;81;21726;-77
2022/01/06 10:12:13;;;;;;;26.10;18.57;;;;;;;6.56;100.00;99020.86;1743888;81;21299;-82
2022/01/06 10:15:27;;;;;;;29.77;17.30;;;;;;;6.56;100.00;99020.86;1732024;80;21334;-83
2022/01/06 10:18:31;;;;;;;24.98;17.67;;;;;;;6.55;100.00;99022.73;1729661;81;21184;-83
2022/01/06 10:21:44;;;;;;;26.12;17.82;;;;;;;6.54;100.00;99022.90;1744071;81;21835;-77
2022/01/06 10:24:50;;;;;;;29.67;18.75;;;;;;;6.54;100.00;99018.34;1735880;81;21196;-77
2022/01/06 10:28:02;;;;;;;20.48;14.90;;;;;;;6.57;100.00;99003.53;1742150;81;21305;-83
2022/01/06 10:31:07;;;;;;;32.05;17.45;;;;;;;6.64;100.00;98990.92;1662389;85;21321;-83
2022/01/06 10:34:16;;;;;;;17.25;12.43;;;;;;;6.56;100.00;98989.63;1681545;83;21379;-79
2022/01/06 10:37:48;;;;;;;20.88;14.50;;;;;;;6.49;100.00;98994.08;1691508;83;21315;-83
2022/01/06 10:40:54;;;;;;;26.02;19.30;;;;;;;6.44;100.00;98988.34;1686916;83;21212;-78
2022/01/06 10:44:00;;;;;;;25.43;17.32;;;;;;;6.38;100.00;98993.48;1695247;83;21157;-82
2022/01/06 10:47:05;;;;;;;29.42;20.00;;;;;;;6.42;100.00;98989.91;1692122;85;21843;-82
2022/01/06 10:50:24;;;;;;;32.13;20.77;;;;;;;6.41;100.00;98990.94;1687376;85;21280;-82
2022/01/06 10:53:29;;;;;;;34.40;21.15;;;;;;;6.49;100.00;98993.56;1672160;85;21675;-82
2022/01/06 10:56:35;;;;;;;35.68;21.27;;;;;;;6.59;100.00;98994.19;1691863;85;21323;-82
2022/01/06 10:59:41;;;;;;;36.53;22.48;;;;;;;6.70;100.00;99004.28;1684715;84;21260;-83
2022/01/06 11:02:47;;;;;;;35.63;23.00;;;;;;;6.78;100.00;99000.14;1688682;84;21300;-82
2022/01/06 11:05:58;;;;;;;31.52;21.62;;;;;;;6.83;100.00;98997.20;1687086;84;21319;-82
2022/01/06 11:09:05;;;;;;;33.48;21.07;;;;;;;6.82;100.00;98988.72;1687543;85;21810;-82
2022/01/06 11:12:30;;;;;;;35.60;21.90;;;;;;;6.78;100.00;98987.39;1684880;85;21330;-82
2022/01/06 11:15:36;;;;;;;34.20;22.95;;;;;;;6.78;100.00;98994.19;1685367;85;21745;-82
2022/01/06 11:18:41;;;;;;;34.38;20.50;;;;;;;6.77;100.00;98989.75;1685454;85;21295;-82
2022/01/06 11:21:54;;;;;;;30.45;19.95;;;;;;;6.75;100.00;98982.83;1684550;85;21216;-77
2022/01/06 11:25:03;;;;;;;27.98;19.52;;;;;;;6.61;100.00;98990.76;1685512;85;21861;-83
2022/01/06 11:28:17;;;;;;;28.05;19.73;;;;;;;6.44;100.00;98993.27;1685470;85;21283;-77
2022/01/06 11:31:30;;;;;;;29.15;20.35;;;;;;;6.33;100.00;98987.76;1685491;85;21311;-77
2022/01/06 11:34:36;;;;;;;29.63;18.73;;;;;;;6.23;100.00;98987.16;1685556;85;21836;-78
2022/01/06 11:37:54;;;;;;;35.90;24.67;;;;;;;6.13;100.00;98988.75;1685403;85;21303;-82
2022/01/06 11:41:15;;;;;;;31.68;21.48;;;;;;;6.03;100.00;98997.64;1685469;85;21213;-77
2022/01/06 11:44:31;;;;;;;34.10;22.62;;;;;;;6.00;100.00;98997.16;1685347;85;21264;-75
2022/01/06 11:47:43;;;;;;;36.80;24.35;;;;;;;6.04;100.00;98993.91;1685502;85;21327;-81
2022/01/06 11:50:55;;;;;;;37.70;23.52;;;;;;;6.09;100.00;99001.51;1685489;85;21303;-82
2022/01/06 11:53:54;;;;;;;29.07;19.75;;;;;;;6.12;100.00;98998.45;1685186;85;21261;-83
2022/01/06 11:56:58;;;;;;;43.10;27.02;;;;;;;6.05;100.00;99002.37;1684122;85;21216;-78
2022/01/06 11:59:44;;;;;;;37.00;22.32;;;;;;;6.00;100.00;99002.58;1688137;84;21248;-82
2022/01/06 12:02:37;;;;;;;39.45;25.02;;;;;;;6.01;100.00;99015.13;1690251;85;21220;-81
2022/01/06 12:05:25;;;;;;;32.90;21.75;;;;;;;6.02;100.00;99010.02;1689776;85;21196;-82
2022/01/06 12:08:18;;;;;;;38.23;24.98;;;;;;;6.08;100.00;99021.55;1689134;85;21334;-77
2022/01/06 12:11:30;;;;;;;40.83;23.75;;;;;;;6.13;100.00;99032.70;1689682;85;21654;-82
2022/01/06 12:14:35;;;;;;;41.53;25.88;;;;;;;6.17;100.00;99039.47;1690085;85;21354;-78
2022/01/06 12:17:40;;;;;;;41.40;24.75;;;;;;;6.21;100.00;99054.39;1688487;85;21223;-82
2022/01/06 12:20:45;;;;;;;43.68;23.73;;;;;;;6.23;100.00;99068.62;1690211;85;21860;-80
2022/01/06 12:23:50;;;;;;;31.57;20.00;;;;;;;6.23;100.00;99064.55;1689790;85;21811;-83
2022/01/06 12:26:57;;;;;;;46.75;25.40;;;;;;;6.23;100.00;99064.55;1688937;85;21338;-77
2022/01/06 12:30:02;;;;;;;40.40;26.10;;;;;;;6.18;100.00;99078.33;1690145;85;21287;-82
2022/01/06 12:33:09;;;;;;;34.90;22.00;;;;;;;6.14;100.00;99080.55;1690276;85;21200;-82
2022/01/06 12:36:14;;;;;;;36.93;23.55;;;;;;;6.14;100.00;99099.55;1689789;85;21310;-82
2022/01/06 12:39:28;;;;;;;40.98;25.50;;;;;;;6.12;100.00;99095.67;1695663;83;21268;-82
2022/01/06 12:42:35;;;;;;;38.05;22.82;;;;;;;6.14;100.00;99103.11;1697903;84;21166;-77
2022/01/06 12:45:41;;;;;;;32.95;22.13;;;;;;;6.11;100.00;99102.09;1691622;85;21385;-77
2022/01/06 12:48:49;;;;;;;31.62;21.33;;;;;;;5.98;100.00;99106.42;1691810;85;21296;-77
2022/01/06 12:51:54;;;;;;;30.75;19.50;;;;;;;5.85;100.00;99113.22;1691800;85;21376;-77
2022/01/06 12:54:59;;;;;;;28.47;19.02;;;;;;;5.71;100.00;99108.52;1691320;84;21221;-77
2022/01/06 12:57:58;;;;;;;27.58;18.32;;;;;;;5.61;100.00;99111.94;1693502;85;21189;-77
2022/01/06 13:01:06;;;;;;;31.45;20.88;;;;;;;5.54;100.00;99115.84;1693248;84;21220;-77
2022/01/06 13:04:14;;;;;;;39.98;23.25;;;;;;;5.51;100.00;99116.72;1693224;85;21185;-82
2022/01/06 13:07:22;;;;;;;39.78;24.43;;;;;;;5.54;100.00;99120.42;1693341;85;21228;-77
2022/01/06 13:10:29;;;;;;;41.70;25.73;;;;;;;5.55;100.00;99104.48;1692272;84;21208;-77
2022/01/06 13:13:34;;;;;;;45.95;23.75;;;;;;;5.56;100.00;99110.27;1693685;85;21173;-81
2022/01/06 13:16:41;;;;;;;44.85;22.77;;;;;;;5.52;100.00;99118.41;1692779;85;21848;-78
2022/01/06 13:20:15;;;;;;;51.00;26.12;;;;;;;5.46;100.00;99123.14;1693750;85;21197;-76
2022/01/06 13:26:52;;;;;;;52.70;27.95;;;;;;;5.38;100.00;99122.66;1692250;85;21322;-77
2022/01/06 13:30:01;;;;;;;48.58;26.45;;;;;;;5.32;100.00;99129.63;1695634;84;21766;-80
2022/01/06 13:33:06;;;;;;;67.35;28.80;;;;;;;5.30;100.00;99133.00;1694913;83;21817;-77
2022/01/06 13:36:12;;;;;;;42.78;24.55;;;;;;;5.28;100.00;99136.41;1692403;85;21343;-83
2022/01/06 13:39:19;;;;;;;66.47;30.70;;;;;;;5.25;100.00;99134.03;1692043;83;21322;-77
2022/01/06 13:42:46;;;;;;;57.78;28.42;;;;;;;5.24;100.00;99139.12;1692165;85;21347;-77
2022/01/06 13:45:52;;;;;;;41.45;24.75;;;;;;;5.26;100.00;99128.09;1614359;87;21357;-81
2022/01/06 13:52:26;;;;;;;45.48;25.72;;;;;;;5.26;100.00;99138.42;1609293;89;21227;-77
2022/01/06 13:55:31;;;;;;;54.08;29.52;;;;;;;5.24;100.00;99133.70;1609340;89;21299;-77
2022/01/06 13:58:37;;;;;;;55.15;28.15;;;;;;;5.26;100.00;99139.78;1610261;89;21307;-81
2022/01/06 14:01:43;;;;;;;49.10;26.85;;;;;;;5.24;100.00;99147.77;1610013;89;21346;-76
2022/01/06 14:04:52;;;;;;;52.23;29.63;;;;;;;5.19;100.00;99146.92;1611023;89;21856;-77
2022/01/06 14:07:58;;;;;;;63.78;32.53;;;;;;;5.18;100.00;99154.72;1672335;86;21763;-82
2022/01/06 14:11:05;;;;;;;64.97;30.40;;;;;;;5.14;100.00;99157.42;1638014;87;21239;-82
2022/01/06 14:14:12;;;;;;;73.07;31.35;;;;;;;5.09;100.00;99151.16;1611765;89;21224;-82
2022/01/06 14:17:17;;;;;;;71.30;31.82;;;;;;;5.05;100.00;99139.47;1672455;86;21226;-83
2022/01/06 14:20:23;;;;;;;96.57;30.92;;;;;;;5.03;100.00;99152.32;1638430;87;21374;-83
2022/01/06 14:23:30;;;;;;;70.87;30.97;;;;;;;5.02;100.00;99156.91;1612328;89;21212;-77
2022/01/06 14:26:36;;;;;;;62.43;30.02;;;;;;;4.96;100.00;99168.42;1672297;86;21342;-77
2022/01/06 14:29:42;;;;;;;68.05;30.12;;;;;;;4.93;100.00;99166.55;1637612;86;21231;-77
2022/01/06 14:32:47;;;;;;;74.82;29.63;;;;;;;4.90;100.00;99162.84;1612234;89;21362;-77
2022/01/06 14:35:53;;;;;;;58.63;32.63;;;;;;;4.86;100.00;99165.03;1673039;86;21760;-83